Time;durP1;ratioP1;P1;durP2;ratioP2;P2;SDS_P1;SDS_P2;PMS_P1;PMS_P2;Temp;Humidity;BMP_temperature;BMP_pressure;BME280_temperature;BME280_humidity;BME280_pressure;Samples;Min_cycle;Max_cycle;Signal;HPM_P1;HPM_P2
2024/01/03 00:00:13;;;;;;;1.08;0.80;;;7.30;99.90;;;;;;5054685;28;20052;-91
2024/01/03 00:02:39;;;;;;;2.05;1.08;;;7.20;99.90;;;;;;5056259;28;20021;-91
2024/01/03 00:05:09;;;;;;;3.50;1.23;;;7.20;99.90;;;;;;5055404;28;20531;-91
2024/01/03 00:07:34;;;;;;;1.80;1.47;;;7.20;99.90;;;;;;5056029;28;20025;-91
2024/01/03 00:10:01;;;;;;;6.78;2.70;;;7.20;99.90;;;;;;5055892;28;20480;-92
2024/01/03 00:12:27;;;;;;;5.15;2.88;;;7.20;99.90;;;;;;5054963;28;20036;-91
2024/01/03 00:14:53;;;;;;;6.90;3.30;;;7.20;99.90;;;;;;5055191;28;20115;-90
2024/01/03 00:17:20;;;;;;;7.72;2.53;;;7.20;99.90;;;;;;5055003;28;20079;-91
2024/01/03 00:19:53;;;;;;;5.93;3.00;;;7.20;99.90;;;;;;5054878;28;20562;-91
2024/01/03 00:22:19;;;;;;;7.32;3.20;;;7.30;99.90;;;;;;5055307;28;20025;-91
2024/01/03 00:24:46;;;;;;;6.60;3.35;;;7.20;99.90;;;;;;5055689;28;20135;-90
2024/01/03 00:27:13;;;;;;;7.10;3.75;;;7.30;99.90;;;;;;5055276;28;20049;-91
2024/01/03 00:29:54;;;;;;;8.55;4.03;;;7.20;99.90;;;;;;5054912;28;20025;-91
2024/01/03 00:32:22;;;;;;;5.70;4.22;;;7.30;99.90;;;;;;5052891;28;20025;-91
2024/01/03 00:34:48;;;;;;;9.70;3.72;;;7.30;99.90;;;;;;5054891;28;20218;-91
2024/01/03 00:37:33;;;;;;;5.72;2.97;;;7.30;99.90;;;;;;5054254;28;20381;-90
2024/01/03 00:40:02;;;;;;;5.78;3.28;;;7.20;99.90;;;;;;5061032;28;20037;-92
2024/01/03 00:42:28;;;;;;;5.18;2.50;;;7.30;99.90;;;;;;5054994;28;20037;-92
2024/01/03 00:44:54;;;;;;;5.20;3.13;;;7.20;99.90;;;;;;5046209;28;20545;-91
2024/01/03 00:47:20;;;;;;;9.52;3.30;;;7.20;99.90;;;;;;5035170;28;20107;-91
2024/01/03 00:49:47;;;;;;;6.07;2.88;;;7.20;99.90;;;;;;5034114;28;20400;-90
2024/01/03 00:52:13;;;;;;;5.72;2.70;;;7.20;99.90;;;;;;5034965;28;20025;-92
2024/01/03 00:54:39;;;;;;;8.05;2.80;;;7.20;99.90;;;;;;5034534;28;20057;-91
2024/01/03 00:57:06;;;;;;;5.97;2.70;;;7.30;99.90;;;;;;5034237;28;20026;-90
2024/01/03 00:59:34;;;;;;;7.00;2.35;;;7.30;99.90;;;;;;5035218;28;20030;-91
2024/01/03 01:02:02;;;;;;;3.13;2.03;;;7.30;99.90;;;;;;5035154;28;20021;-91
2024/01/03 01:04:30;;;;;;;4.30;2.45;;;7.30;99.90;;;;;;5034640;28;20025;-91
2024/01/03 01:06:55;;;;;;;4.90;2.53;;;7.30;99.90;;;;;;5034220;28;20033;-91
2024/01/03 01:09:21;;;;;;;7.03;2.55;;;7.30;99.90;;;;;;5033323;28;20024;-90
2024/01/03 01:11:47;;;;;;;3.25;2.47;;;7.30;99.90;;;;;;5033519;28;20060;-92
2024/01/03 01:14:13;;;;;;;4.90;2.45;;;7.30;99.90;;;;;;5034330;28;20365;-90
2024/01/03 01:16:38;;;;;;;4.97;2.33;;;7.30;99.90;;;;;;5035534;28;20049;-91
2024/01/03 01:19:05;;;;;;;4.72;2.40;;;7.20;99.90;;;;;;5035805;28;20044;-91
2024/01/03 01:21:31;;;;;;;6.05;2.35;;;7.20;99.90;;;;;;5037184;28;20026;-91
2024/01/03 01:23:56;;;;;;;2.72;2.20;;;7.20;99.90;;;;;;5041740;28;20065;-91
2024/01/03 01:26:31;;;;;;;3.42;2.33;;;7.20;99.90;;;;;;5044294;28;20037;-91
2024/01/03 01:28:57;;;;;;;5.32;1.77;;;7.20;99.90;;;;;;5034719;28;20116;-91
2024/01/03 01:31:23;;;;;;;9.18;2.88;;;7.10;99.90;;;;;;5037173;28;20068;-91
2024/01/03 01:33:49;;;;;;;3.95;1.90;;;7.10;99.90;;;;;;5040101;28;20057;-92
2024/01/03 01:36:15;;;;;;;3.38;1.70;;;7.10;99.90;;;;;;5042356;28;20033;-91
2024/01/03 01:38:40;;;;;;;5.70;2.20;;;7.00;99.90;;;;;;5041430;28;20030;-91
2024/01/03 01:41:06;;;;;;;3.28;1.50;;;7.00;99.90;;;;;;5039181;28;20048;-92
2024/01/03 01:43:32;;;;;;;5.38;1.67;;;7.00;99.90;;;;;;5038491;28;20032;-91
2024/01/03 01:45:58;;;;;;;3.47;1.38;;;7.00;99.90;;;;;;5035841;28;20029;-91
2024/01/03 01:48:24;;;;;;;7.20;1.20;;;6.90;99.90;;;;;;5034353;28;20025;-91
2024/01/03 01:50:50;;;;;;;1.58;0.90;;;6.90;99.90;;;;;;5034313;28;20116;-91
2024/01/03 01:53:16;;;;;;;7.30;1.80;;;6.80;99.90;;;;;;5034603;28;20132;-92
2024/01/03 01:55:42;;;;;;;6.05;1.15;;;6.80;99.90;;;;;;5033672;28;20049;-92
2024/01/03 01:58:09;;;;;;;5.82;0.95;;;6.80;99.90;;;;;;5033855;28;20055;-92
2024/01/03 02:00:37;;;;;;;3.85;1.08;;;6.80;99.90;;;;;;5033578;28;20033;-91
2024/01/03 02:03:03;;;;;;;2.92;1.15;;;6.70;99.90;;;;;;5033185;28;20057;-91
2024/01/03 02:05:29;;;;;;;4.85;0.80;;;6.70;99.90;;;;;;5033114;28;20108;-91
2024/01/03 02:07:56;;;;;;;3.28;0.75;;;6.70;99.90;;;;;;5033154;28;20029;-91
2024/01/03 02:10:21;;;;;;;3.78;0.93;;;6.60;99.90;;;;;;5033093;28;20060;-91
2024/01/03 02:12:47;;;;;;;4.75;1.17;;;6.60;99.90;;;;;;5033076;28;20076;-91
2024/01/03 02:15:13;;;;;;;7.55;1.08;;;6.60;99.90;;;;;;5033262;28;20025;-91
2024/01/03 02:17:39;;;;;;;6.68;1.13;;;6.60;99.90;;;;;;5032546;28;20116;-91
2024/01/03 02:20:05;;;;;;;2.33;0.80;;;6.50;99.90;;;;;;5032531;28;20060;-91
2024/01/03 02:22:31;;;;;;;6.90;1.10;;;6.50;99.90;;;;;;5032193;28;20530;-91
2024/01/03 02:24:57;;;;;;;7.43;1.00;;;6.50;99.90;;;;;;5032980;28;20100;-92
2024/01/03 02:27:23;;;;;;;15.00;1.80;;;6.50;99.90;;;;;;5032756;28;20033;-91
2024/01/03 02:29:48;;;;;;;5.88;1.00;;;6.50;99.90;;;;;;5032689;28;20080;-91
2024/01/03 02:32:14;;;;;;;5.07;0.80;;;6.50;99.90;;;;;;5032608;28;20025;-91
2024/01/03 02:34:43;;;;;;;3.55;1.13;;;6.40;99.90;;;;;;5032332;28;20025;-91
2024/01/03 02:37:10;;;;;;;7.90;1.38;;;6.40;99.90;;;;;;5033153;28;20484;-93
2024/01/03 02:39:36;;;;;;;3.92;0.95;;;6.40;99.90;;;;;;5032716;28;20029;-91
2024/01/03 02:42:01;;;;;;;8.20;1.20;;;6.40;99.90;;;;;;5032744;28;20060;-91
2024/01/03 02:44:27;;;;;;;8.20;1.15;;;6.30;99.90;;;;;;5032526;28;20132;-91
2024/01/03 02:46:54;;;;;;;7.75;1.20;;;6.30;99.90;;;;;;5032604;28;20048;-91
2024/01/03 02:49:20;;;;;;;5.75;1.33;;;6.30;99.90;;;;;;5035719;28;20072;-92
2024/01/03 02:51:46;;;;;;;8.20;1.35;;;6.30;99.90;;;;;;5037834;28;20025;-91
2024/01/03 02:54:12;;;;;;;9.27;1.10;;;6.30;99.90;;;;;;5033242;28;20548;-91
2024/01/03 02:56:39;;;;;;;3.28;1.00;;;6.30;99.90;;;;;;5034287;28;20127;-93
2024/01/03 02:59:05;;;;;;;11.55;1.20;;;6.30;99.90;;;;;;5033215;28;20060;-91
2024/01/03 03:01:30;;;;;;;7.97;1.00;;;6.20;99.90;;;;;;5033102;28;20029;-91
2024/01/03 03:03:56;;;;;;;4.53;0.75;;;6.20;99.90;;;;;;5033455;28;20025;-90
2024/01/03 03:06:22;;;;;;;5.38;1.20;;;6.20;99.90;;;;;;5031954;28;20029;-91
2024/01/03 03:08:48;;;;;;;9.48;1.17;;;6.20;99.90;;;;;;5015089;28;20026;-91
2024/01/03 03:11:13;;;;;;;4.70;1.00;;;6.20;99.90;;;;;;5032462;28;20075;-91
2024/01/03 03:13:39;;;;;;;7.20;2.35;;;6.10;99.90;;;;;;5031686;28;20041;-89
2024/01/03 03:16:07;;;;;;;6.70;1.27;;;6.10;99.90;;;;;;5031685;28;20435;-93
2024/01/03 03:18:33;;;;;;;3.50;1.10;;;6.10;99.90;;;;;;5031401;28;20048;-91
2024/01/03 03:21:00;;;;;;;6.32;1.20;;;6.10;99.90;;;;;;5032136;28;20462;-90
2024/01/03 03:23:26;;;;;;;10.13;1.17;;;6.10;99.90;;;;;;5032365;28;20056;-91
2024/01/03 03:25:52;;;;;;;5.22;1.25;;;6.10;99.90;;;;;;5032601;28;20515;-92
2024/01/03 03:28:18;;;;;;;2.30;0.80;;;6.10;99.90;;;;;;5032424;28;20033;-93
2024/01/03 03:30:44;;;;;;;6.32;1.45;;;6.00;99.90;;;;;;5032659;28;20476;-90
2024/01/03 03:33:10;;;;;;;7.88;1.20;;;6.10;99.90;;;;;;5031714;28;20123;-90
2024/01/03 03:35:35;;;;;;;11.85;1.30;;;6.00;99.90;;;;;;5034837;28;20438;-90
2024/01/03 03:38:01;;;;;;;11.50;1.50;;;6.00;99.90;;;;;;5035154;28;20473;-90
2024/01/03 03:40:27;;;;;;;7.85;1.38;;;6.00;99.90;;;;;;5034997;28;20029;-91
2024/01/03 03:42:53;;;;;;;5.50;1.05;;;6.00;99.90;;;;;;5035077;28;20024;-90
2024/01/03 03:45:18;;;;;;;8.48;1.42;;;6.10;99.90;;;;;;5035576;28;20400;-90
2024/01/03 03:47:46;;;;;;;10.15;1.65;;;6.10;99.90;;;;;;5035594;28;20498;-91
2024/01/03 03:50:11;;;;;;;11.20;2.28;;;6.00;99.90;;;;;;5035249;28;20036;-91
2024/01/03 03:52:39;;;;;;;4.97;1.33;;;6.10;99.90;;;;;;5035231;28;20022;-91
2024/01/03 03:55:06;;;;;;;10.43;2.10;;;6.00;99.90;;;;;;5035274;28;20064;-91
2024/01/03 03:57:34;;;;;;;13.57;2.42;;;6.00;99.90;;;;;;5034908;28;20025;-90
2024/01/03 04:00:03;;;;;;;6.13;1.50;;;6.00;99.90;;;;;;5035204;28;20030;-91
2024/01/03 04:02:29;;;;;;;10.48;1.90;;;6.00;99.90;;;;;;5035037;28;20117;-90
2024/01/03 04:04:55;;;;;;;8.80;1.98;;;6.00;99.90;;;;;;5037282;28;20025;-91
2024/01/03 04:07:20;;;;;;;11.90;2.53;;;6.10;99.90;;;;;;5038133;28;20519;-92
2024/01/03 04:09:46;;;;;;;5.88;1.50;;;6.10;99.90;;;;;;5035932;28;20030;-91
2024/01/03 04:12:12;;;;;;;11.00;4.32;;;6.10;99.90;;;;;;5035794;28;20021;-90
2024/01/03 04:14:38;;;;;;;20.92;3.30;;;6.10;99.90;;;;;;5034825;28;20034;-90
2024/01/03 04:17:03;;;;;;;10.45;2.47;;;6.10;99.90;;;;;;5034648;28;20113;-91
2024/01/03 04:19:30;;;;;;;14.57;3.17;;;6.10;99.90;;;;;;5034528;28;20128;-91
2024/01/03 04:21:59;;;;;;;8.57;1.92;;;6.20;99.90;;;;;;5034490;28;20029;-91
2024/01/03 04:24:25;;;;;;;11.95;3.03;;;6.20;99.90;;;;;;5034578;28;20436;-91
2024/01/03 04:26:54;;;;;;;8.02;2.00;;;6.20;99.90;;;;;;5034621;28;20025;-90
2024/01/03 04:29:20;;;;;;;15.77;3.65;;;6.20;99.90;;;;;;5034203;28;20022;-91
2024/01/03 04:31:46;;;;;;;12.48;2.50;;;6.30;99.90;;;;;;5034825;28;20117;-91
2024/01/03 04:34:12;;;;;;;14.50;3.15;;;6.20;99.90;;;;;;5034255;28;20045;-91
2024/01/03 04:36:39;;;;;;;15.85;3.40;;;6.20;99.90;;;;;;5035164;28;20049;-91
2024/01/03 04:39:05;;;;;;;12.15;3.70;;;6.20;99.90;;;;;;5035039;28;20029;-90
2024/01/03 04:41:30;;;;;;;12.70;4.03;;;6.20;99.90;;;;;;5035017;28;20530;-91
2024/01/03 04:43:56;;;;;;;12.20;3.85;;;6.20;99.90;;;;;;5034357;28;20029;-92
2024/01/03 04:46:22;;;;;;;10.23;2.90;;;6.20;99.90;;;;;;5042558;28;20105;-91
2024/01/03 04:48:48;;;;;;;14.55;3.33;;;6.20;99.90;;;;;;5044563;28;20079;-91
2024/01/03 04:51:15;;;;;;;13.75;3.20;;;6.20;99.90;;;;;;5042502;28;20021;-91
2024/01/03 04:53:41;;;;;;;27.55;3.60;;;6.20;99.90;;;;;;5041408;28;20048;-91
2024/01/03 04:56:07;;;;;;;9.43;2.97;;;6.20;99.90;;;;;;5041353;28;20033;-92
2024/01/03 04:58:33;;;;;;;7.53;2.78;;;6.20;99.90;;;;;;5039371;28;20053;-91
2024/01/03 05:00:59;;;;;;;21.05;3.35;;;6.20;99.90;;;;;;5040661;28;20024;-92
2024/01/03 05:03:26;;;;;;;11.90;2.83;;;6.20;99.90;;;;;;5041242;28;20033;-92
2024/01/03 05:05:51;;;;;;;13.25;3.08;;;6.20;99.90;;;;;;5037143;28;20044;-91
2024/01/03 05:08:17;;;;;;;10.13;2.95;;;6.20;99.90;;;;;;5034790;28;20033;-92
2024/01/03 05:10:43;;;;;;;13.88;4.18;;;6.30;99.90;;;;;;5033843;28;20025;-91
2024/01/03 05:13:08;;;;;;;17.75;3.10;;;6.30;99.90;;;;;;5034192;28;20156;-92
2024/01/03 05:15:34;;;;;;;15.95;3.78;;;6.30;99.90;;;;;;5033906;28;20041;-92
2024/01/03 05:18:00;;;;;;;6.75;2.75;;;6.30;99.90;;;;;;5034352;28;20504;-92
2024/01/03 05:20:25;;;;;;;12.43;2.83;;;6.30;99.90;;;;;;5034403;28;20030;-91
2024/01/03 05:22:51;;;;;;;14.38;3.85;;;6.30;99.90;;;;;;5034236;28;20025;-92
2024/01/03 05:25:17;;;;;;;15.00;3.30;;;6.30;99.90;;;;;;5034781;28;20089;-91
2024/01/03 05:27:43;;;;;;;10.70;2.70;;;6.40;99.90;;;;;;5033674;28;20124;-92
2024/01/03 05:30:09;;;;;;;11.32;3.03;;;6.30;99.90;;;;;;5033702;28;20028;-91
2024/01/03 05:32:35;;;;;;;9.50;3.47;;;6.30;99.90;;;;;;5033456;28;20107;-91
2024/01/03 05:35:01;;;;;;;13.30;4.00;;;6.30;99.90;;;;;;5033264;28;20025;-92
2024/01/03 05:37:26;;;;;;;14.82;2.92;;;6.30;99.90;;;;;;5033936;28;20045;-91
2024/01/03 05:39:52;;;;;;;13.38;3.00;;;6.30;99.90;;;;;;5034118;28;20036;-91
2024/01/03 05:42:18;;;;;;;13.65;3.30;;;6.30;99.90;;;;;;5033511;28;20029;-92
2024/01/03 05:44:43;;;;;;;13.98;3.60;;;6.30;99.90;;;;;;5033455;28;20021;-91
2024/01/03 05:47:09;;;;;;;8.73;2.63;;;6.40;99.90;;;;;;5033553;28;20128;-91
2024/01/03 05:49:35;;;;;;;15.93;2.85;;;6.40;99.90;;;;;;5033257;28;20060;-91
2024/01/03 05:52:01;;;;;;;13.30;3.53;;;6.40;99.90;;;;;;5032700;28;20025;-91
2024/01/03 05:54:27;;;;;;;9.20;2.60;;;6.30;99.90;;;;;;5032743;28;20041;-91
2024/01/03 05:56:53;;;;;;;15.80;2.70;;;6.30;99.90;;;;;;5032066;28;20049;-92
2024/01/03 05:59:20;;;;;;;18.02;3.38;;;6.30;99.90;;;;;;5033147;28;20083;-91
2024/01/03 06:01:46;;;;;;;13.93;2.30;;;6.30;99.90;;;;;;5032931;28;20030;-91
2024/01/03 06:04:13;;;;;;;21.17;3.60;;;6.30;99.90;;;;;;5033235;28;20029;-92
2024/01/03 06:06:41;;;;;;;22.75;2.92;;;6.30;99.90;;;;;;5033282;28;20061;-91
2024/01/03 06:09:07;;;;;;;12.65;2.63;;;6.30;99.90;;;;;;5032510;28;20079;-91
2024/01/03 06:11:32;;;;;;;13.73;2.80;;;6.30;99.90;;;;;;5032353;28;20029;-91
2024/01/03 06:13:58;;;;;;;22.17;3.30;;;6.20;99.90;;;;;;5032735;28;20068;-91
2024/01/03 06:16:24;;;;;;;10.35;2.78;;;6.20;99.90;;;;;;5033220;28;20021;-91
2024/01/03 06:18:49;;;;;;;16.30;3.40;;;6.20;99.90;;;;;;5032271;28;20567;-90
2024/01/03 06:21:15;;;;;;;19.00;3.10;;;6.20;99.90;;;;;;5032413;28;20025;-92
2024/01/03 06:23:41;;;;;;;10.70;2.47;;;6.20;99.90;;;;;;5032986;28;20030;-92
2024/01/03 06:26:07;;;;;;;17.50;3.25;;;6.20;99.90;;;;;;5033024;28;20026;-91
2024/01/03 06:28:33;;;;;;;14.48;3.55;;;6.20;99.90;;;;;;5032523;28;20037;-91
2024/01/03 06:31:00;;;;;;;15.05;2.70;;;6.20;99.90;;;;;;5032372;28;20064;-92
2024/01/03 06:33:26;;;;;;;17.92;2.55;;;6.20;99.90;;;;;;5032672;28;20045;-91
2024/01/03 06:35:52;;;;;;;18.88;2.65;;;6.20;99.90;;;;;;5032243;28;20026;-91
2024/01/03 06:38:17;;;;;;;20.98;2.42;;;6.20;99.90;;;;;;5031976;28;20033;-91
2024/01/03 06:40:43;;;;;;;15.98;2.70;;;6.30;99.90;;;;;;5032168;28;20080;-90
2024/01/03 06:43:09;;;;;;;16.00;3.08;;;6.30;99.90;;;;;;5031978;28;20507;-91
2024/01/03 06:45:34;;;;;;;17.33;2.33;;;6.30;99.90;;;;;;5034737;28;20328;-90
2024/01/03 06:48:02;;;;;;;14.32;2.60;;;6.30;99.90;;;;;;5034594;28;20037;-92
2024/01/03 06:50:28;;;;;;;16.25;2.67;;;6.30;99.90;;;;;;5032309;28;20072;-91
2024/01/03 06:52:54;;;;;;;22.83;3.60;;;6.40;99.90;;;;;;5032928;28;20516;-91
2024/01/03 06:55:20;;;;;;;9.63;1.98;;;6.40;99.90;;;;;;5032958;28;20033;-90
2024/01/03 06:57:48;;;;;;;13.18;2.97;;;6.40;99.90;;;;;;5032259;28;20017;-91
2024/01/03 07:00:14;;;;;;;13.90;2.92;;;6.40;99.90;;;;;;5032040;28;20033;-91
2024/01/03 07:02:40;;;;;;;10.15;2.13;;;6.40;99.90;;;;;;5032479;28;20113;-91
2024/01/03 07:05:06;;;;;;;10.93;2.30;;;6.40;99.90;;;;;;5032385;28;20056;-91
2024/01/03 07:07:32;;;;;;;12.68;1.65;;;6.40;99.90;;;;;;5032396;28;20040;-90
2024/01/03 07:10:00;;;;;;;10.65;1.73;;;6.40;99.90;;;;;;5020032;28;20130;-92
2024/01/03 07:12:26;;;;;;;4.47;1.40;;;6.40;99.90;;;;;;5036354;28;20049;-91
2024/01/03 07:14:51;;;;;;;11.27;2.42;;;6.40;99.90;;;;;;5036054;28;20029;-91
2024/01/03 07:17:17;;;;;;;14.05;2.63;;;6.40;99.90;;;;;;5044627;28;20034;-91
2024/01/03 07:19:43;;;;;;;7.18;1.70;;;6.40;99.90;;;;;;5037450;28;20025;-91
2024/01/03 07:22:09;;;;;;;10.10;1.58;;;6.40;99.90;;;;;;5035218;28;20022;-91
2024/01/03 07:24:36;;;;;;;8.85;1.42;;;6.40;99.90;;;;;;5035480;28;20022;-91
2024/01/03 07:27:03;;;;;;;10.07;2.70;;;6.40;99.90;;;;;;5035614;28;20033;-91
2024/01/03 07:29:29;;;;;;;8.10;1.88;;;6.40;99.90;;;;;;5034610;28;20021;-91
2024/01/03 07:31:54;;;;;;;10.00;1.80;;;6.40;99.90;;;;;;5034607;28;20027;-91
2024/01/03 07:34:20;;;;;;;7.20;1.92;;;6.40;99.90;;;;;;5034636;28;20593;-92
2024/01/03 07:36:46;;;;;;;11.60;1.95;;;6.40;99.90;;;;;;5034970;28;20013;-90
2024/01/03 07:39:11;;;;;;;7.72;2.20;;;6.40;99.90;;;;;;5034529;28;20029;-91
2024/01/03 07:41:38;;;;;;;8.43;2.28;;;6.40;99.90;;;;;;5034708;28;20072;-91
2024/01/03 07:44:04;;;;;;;13.15;1.88;;;6.40;99.90;;;;;;5036108;28;20108;-91
2024/01/03 07:46:29;;;;;;;8.13;1.45;;;6.40;99.90;;;;;;5034714;28;20053;-92
2024/01/03 07:48:55;;;;;;;5.22;1.70;;;6.40;99.90;;;;;;5034429;28;20036;-90
2024/01/03 07:51:21;;;;;;;7.70;1.80;;;6.40;99.90;;;;;;5036100;28;20024;-92
2024/01/03 07:53:47;;;;;;;5.10;1.50;;;6.40;99.90;;;;;;5036136;28;20153;-92
2024/01/03 07:56:13;;;;;;;6.43;2.17;;;6.40;99.90;;;;;;5035271;28;20109;-92
2024/01/03 07:58:39;;;;;;;8.27;1.52;;;6.40;99.90;;;;;;5037457;28;20056;-91
2024/01/03 08:01:04;;;;;;;4.60;1.33;;;6.40;99.90;;;;;;5045518;28;20036;-91
2024/01/03 08:03:30;;;;;;;6.18;1.45;;;6.40;99.90;;;;;;5043935;28;20243;-91
2024/01/03 08:05:56;;;;;;;7.20;2.55;;;6.40;99.90;;;;;;5042360;28;20021;-91
2024/01/03 08:08:22;;;;;;;9.07;1.67;;;6.40;99.90;;;;;;5041097;28;20029;-92
2024/01/03 08:10:48;;;;;;;4.35;1.50;;;6.30;99.90;;;;;;5038507;28;20034;-92
2024/01/03 08:13:13;;;;;;;4.32;1.40;;;6.40;99.90;;;;;;5037389;28;20480;-91
2024/01/03 08:15:39;;;;;;;3.72;1.30;;;6.40;99.90;;;;;;5035419;28;20013;-92
2024/01/03 08:18:05;;;;;;;4.22;1.35;;;6.40;99.90;;;;;;5035707;28;20053;-92
2024/01/03 08:20:31;;;;;;;4.20;1.40;;;6.40;99.90;;;;;;5034285;28;20029;-91
2024/01/03 08:22:56;;;;;;;5.75;1.55;;;6.40;99.90;;;;;;5035476;28;20033;-93
2024/01/03 08:25:43;;;;;;;4.32;1.40;;;6.40;99.90;;;;;;5035931;28;20055;-93
2024/01/03 08:28:11;;;;;;;9.38;1.73;;;6.40;99.90;;;;;;5014929;28;20050;-91
2024/01/03 08:30:38;;;;;;;7.85;1.50;;;6.40;99.90;;;;;;5036893;28;20029;-91
2024/01/03 08:33:04;;;;;;;6.18;1.38;;;6.40;99.90;;;;;;5036255;28;20511;-90
2024/01/03 08:35:33;;;;;;;1.67;1.10;;;6.50;99.90;;;;;;5035733;28;20060;-90
2024/01/03 08:37:59;;;;;;;4.78;1.73;;;6.50;99.90;;;;;;5035531;28;20033;-90
2024/01/03 08:40:27;;;;;;;4.28;1.77;;;6.40;99.90;;;;;;5035075;28;20032;-90
2024/01/03 08:42:53;;;;;;;3.17;1.92;;;6.50;99.90;;;;;;5034692;28;20060;-92
2024/01/03 08:45:18;;;;;;;11.25;2.20;;;6.50;99.90;;;;;;5034805;28;20504;-90
2024/01/03 08:47:44;;;;;;;8.48;1.90;;;6.50;99.90;;;;;;5034869;28;20535;-90
2024/01/03 08:50:19;;;;;;;3.92;1.27;;;6.50;99.90;;;;;;5034790;28;20071;-91
2024/01/03 08:52:44;;;;;;;10.20;2.50;;;6.50;99.90;;;;;;5034763;28;20026;-91
2024/01/03 08:55:11;;;;;;;3.83;1.50;;;6.60;99.90;;;;;;5034756;28;20033;-91
2024/01/03 08:57:37;;;;;;;7.70;1.90;;;6.60;99.90;;;;;;5033794;28;20048;-91
2024/01/03 09:00:04;;;;;;;6.00;1.55;;;6.70;99.90;;;;;;5032811;28;20060;-92
2024/01/03 09:02:29;;;;;;;4.28;1.23;;;6.70;99.90;;;;;;5033221;28;20436;-91
2024/01/03 09:04:55;;;;;;;3.40;1.02;;;6.70;99.90;;;;;;5031144;28;20131;-90
2024/01/03 09:07:21;;;;;;;8.27;1.80;;;6.70;99.90;;;;;;5034166;28;20112;-90
2024/01/03 09:09:46;;;;;;;4.82;1.02;;;6.70;99.90;;;;;;5031235;28;20045;-90
2024/01/03 09:12:22;;;;;;;2.83;1.30;;;6.80;99.90;;;;;;5030139;28;20080;-91
2024/01/03 09:15:21;;;;;;;3.55;1.50;;;6.80;99.90;;;;;;5033718;28;20045;-91
2024/01/03 09:17:47;;;;;;;5.90;1.45;;;6.80;99.90;;;;;;5032912;28;20040;-91
2024/01/03 09:20:16;;;;;;;5.75;1.48;;;6.80;99.90;;;;;;5037712;28;20101;-92
2024/01/03 09:22:41;;;;;;;5.82;2.20;;;6.80;99.90;;;;;;5045353;28;20104;-89
2024/01/03 09:25:07;;;;;;;5.15;1.90;;;6.80;99.90;;;;;;5032399;28;20210;-90
2024/01/03 09:27:33;;;;;;;7.55;2.33;;;6.80;99.90;;;;;;5035627;28;20029;-92
2024/01/03 09:30:06;;;;;;;4.88;1.92;;;6.80;99.90;;;;;;5034032;28;20021;-91
2024/01/03 09:32:32;;;;;;;4.78;1.92;;;6.80;99.90;;;;;;5013306;28;20512;-91
2024/01/03 09:35:06;;;;;;;7.22;2.40;;;6.80;99.90;;;;;;5031818;28;20037;-92
2024/01/03 09:37:32;;;;;;;4.20;2.40;;;6.80;99.90;;;;;;5049402;28;20025;-91
2024/01/03 09:40:02;;;;;;;5.28;1.90;;;6.90;99.90;;;;;;5032027;28;20025;-92
2024/01/03 09:42:29;;;;;;;3.72;1.90;;;6.90;99.90;;;;;;5032658;28;20056;-90
2024/01/03 09:44:55;;;;;;;11.13;2.42;;;6.90;99.90;;;;;;5033071;28;20051;-90
2024/01/03 09:47:21;;;;;;;3.83;1.90;;;6.90;99.90;;;;;;5033267;28;20029;-90
2024/01/03 09:49:47;;;;;;;7.70;2.65;;;6.90;99.90;;;;;;5032734;28;20144;-91
2024/01/03 09:52:13;;;;;;;6.10;1.75;;;7.00;99.90;;;;;;5033241;28;20072;-91
2024/01/03 09:54:39;;;;;;;5.45;1.50;;;7.00;99.90;;;;;;5032721;28;20038;-92
2024/01/03 09:57:07;;;;;;;7.82;1.92;;;7.00;99.90;;;;;;5032636;28;20033;-92
2024/01/03 09:59:34;;;;;;;7.13;2.10;;;7.00;99.90;;;;;;5045964;28;20112;-92
2024/01/03 10:01:59;;;;;;;4.70;1.88;;;7.10;99.90;;;;;;5053109;28;20400;-92
2024/01/03 10:04:26;;;;;;;3.75;2.15;;;7.10;99.90;;;;;;5037571;28;20036;-92
2024/01/03 10:06:53;;;;;;;4.43;1.98;;;7.10;99.90;;;;;;5034800;28;20059;-91
2024/01/03 10:09:20;;;;;;;5.70;1.70;;;7.10;99.90;;;;;;5033671;28;20029;-92
2024/01/03 10:11:46;;;;;;;5.35;1.73;;;7.10;99.90;;;;;;5033832;28;20029;-93
2024/01/03 10:14:22;;;;;;;6.90;1.70;;;7.10;99.90;;;;;;5033059;28;20057;-92
2024/01/03 10:16:48;;;;;;;4.72;1.70;;;7.20;99.90;;;;;;5033075;28;20103;-90
2024/01/03 10:19:19;;;;;;;4.47;2.05;;;7.20;99.90;;;;;;5031914;28;20032;-90
2024/01/03 10:21:55;;;;;;;3.15;1.73;;;7.20;99.90;;;;;;5033753;28;20147;-91
2024/01/03 10:24:24;;;;;;;4.30;1.85;;;7.20;99.90;;;;;;5032753;28;20444;-91
2024/01/03 10:26:50;;;;;;;5.03;1.98;;;7.20;99.90;;;;;;5032723;28;20029;-91
2024/01/03 10:29:19;;;;;;;3.35;1.55;;;7.20;99.90;;;;;;5032152;28;20037;-91
2024/01/03 10:31:49;;;;;;;5.32;2.15;;;7.30;99.90;;;;;;5032619;28;20033;-91
2024/01/03 10:34:21;;;;;;;7.47;2.10;;;7.30;99.90;;;;;;5032131;28;20041;-91
2024/01/03 10:36:47;;;;;;;6.70;1.90;;;7.30;99.90;;;;;;5028729;28;20026;-91
2024/01/03 10:39:17;;;;;;;6.22;1.90;;;7.30;99.90;;;;;;5031396;28;20025;-91
2024/01/03 10:41:45;;;;;;;5.55;2.05;;;7.30;99.90;;;;;;5032188;28;20030;-91
2024/01/03 10:44:14;;;;;;;3.17;2.13;;;7.40;99.90;;;;;;5031582;28;20120;-92
2024/01/03 10:46:47;;;;;;;4.13;1.60;;;7.40;99.90;;;;;;5027617;28;20030;-92
2024/01/03 10:49:13;;;;;;;4.65;2.15;;;7.40;99.90;;;;;;5025363;28;20036;-91
2024/01/03 10:51:40;;;;;;;5.57;2.00;;;7.40;99.90;;;;;;5013229;28;20030;-92
2024/01/03 10:54:19;;;;;;;4.53;1.83;;;7.40;99.90;;;;;;5024851;28;20033;-91
2024/01/03 10:56:51;;;;;;;4.30;1.85;;;7.50;99.90;;;;;;5033427;28;20037;-92
2024/01/03 10:59:18;;;;;;;3.05;1.70;;;7.50;99.90;;;;;;5043408;28;20051;-92
2024/01/03 11:01:55;;;;;;;6.00;1.75;;;7.60;99.90;;;;;;5056018;28;20048;-92
2024/01/03 11:04:52;;;;;;;6.43;2.00;;;7.50;99.90;;;;;;5051278;28;20022;-92
2024/01/03 11:07:22;;;;;;;3.63;1.80;;;7.60;99.90;;;;;;5045483;28;20033;-92
2024/01/03 11:09:48;;;;;;;6.55;1.92;;;7.60;99.90;;;;;;5037768;28;20029;-92
2024/01/03 11:12:13;;;;;;;5.97;1.60;;;7.60;99.90;;;;;;5037588;28;20040;-91
2024/01/03 11:14:39;;;;;;;6.20;1.88;;;7.60;99.90;;;;;;5034455;28;20127;-91
2024/01/03 11:17:06;;;;;;;7.47;2.00;;;7.70;99.90;;;;;;5033096;28;20037;-90
2024/01/03 11:19:33;;;;;;;3.50;2.38;;;7.70;99.90;;;;;;5032912;28;20034;-92
2024/01/03 11:22:02;;;;;;;7.35;1.90;;;7.70;99.90;;;;;;5049546;28;20025;-91
2024/01/03 11:24:28;;;;;;;5.38;2.28;;;7.70;99.90;;;;;;5032090;28;20373;-91
2024/01/03 11:26:54;;;;;;;4.32;1.80;;;7.70;99.90;;;;;;5032615;28;20026;-91
2024/01/03 11:29:35;;;;;;;5.72;3.35;;;7.80;99.90;;;;;;5032252;28;20033;-92
2024/01/03 11:32:04;;;;;;;3.05;1.92;;;7.80;99.90;;;;;;5033196;28;20026;-92
2024/01/03 11:34:44;;;;;;;4.13;2.10;;;7.80;99.90;;;;;;5027525;28;20175;-91
2024/01/03 11:37:12;;;;;;;3.35;1.58;;;7.80;99.90;;;;;;5027530;28;20018;-91
2024/01/03 11:39:42;;;;;;;3.92;2.05;;;7.80;99.90;;;;;;5029367;28;20048;-92
2024/01/03 11:42:11;;;;;;;3.50;1.80;;;7.90;99.90;;;;;;5030064;28;20497;-92
2024/01/03 11:44:36;;;;;;;2.40;1.73;;;7.80;99.90;;;;;;5031471;28;20021;-91
2024/01/03 11:47:04;;;;;;;4.65;1.95;;;7.90;99.90;;;;;;5032984;28;20017;-92
2024/01/03 11:49:31;;;;;;;3.97;2.10;;;7.90;99.90;;;;;;5033800;28;20026;-91
2024/01/03 11:52:01;;;;;;;4.97;2.22;;;7.90;99.90;;;;;;5031850;28;20017;-91
2024/01/03 11:54:33;;;;;;;5.95;2.53;;;7.90;99.90;;;;;;5034190;28;20057;-92
2024/01/03 11:57:07;;;;;;;5.85;1.92;;;8.00;99.90;;;;;;5050472;28;20032;-93
2024/01/03 11:59:33;;;;;;;3.58;2.10;;;8.00;99.90;;;;;;5042988;28;20029;-92
2024/01/03 12:01:59;;;;;;;2.22;1.58;;;8.10;99.90;;;;;;5047791;28;20629;-92
2024/01/03 12:04:26;;;;;;;2.33;1.50;;;8.10;99.90;;;;;;5052098;28;20028;-90
2024/01/03 12:06:59;;;;;;;7.57;2.55;;;8.10;99.90;;;;;;5049453;28;20117;-92
2024/01/03 12:09:31;;;;;;;3.00;1.80;;;8.10;99.90;;;;;;5046955;28;20013;-92
2024/01/03 12:12:00;;;;;;;3.08;1.73;;;8.10;99.90;;;;;;5049621;28;20044;-92
2024/01/03 12:14:26;;;;;;;3.17;1.83;;;8.20;99.90;;;;;;5041625;28;20037;-93
2024/01/03 12:16:55;;;;;;;16.80;6.85;;;8.20;99.90;;;;;;5041856;28;20045;-93
2024/01/03 12:19:26;;;;;;;4.70;2.20;;;8.20;99.90;;;;;;5045423;28;20049;-93
2024/01/03 12:22:00;;;;;;;4.20;1.90;;;8.30;99.90;;;;;;5048680;28;20021;-93
2024/01/03 12:24:43;;;;;;;2.33;1.80;;;8.30;99.90;;;;;;5050840;28;20029;-92
2024/01/03 12:27:09;;;;;;;7.05;2.38;;;8.30;99.90;;;;;;5051999;28;20045;-92
2024/01/03 12:29:39;;;;;;;3.83;2.88;;;8.30;99.90;;;;;;5035894;28;20032;-93
2024/01/03 12:32:14;;;;;;;4.35;2.65;;;8.30;99.90;;;;;;5035538;28;20494;-91
2024/01/03 12:34:40;;;;;;;3.47;1.90;;;8.30;99.90;;;;;;5036356;28;20056;-92
2024/01/03 12:37:06;;;;;;;5.03;2.50;;;8.30;99.90;;;;;;5035660;28;20480;-92
2024/01/03 12:39:39;;;;;;;5.20;2.70;;;8.30;99.90;;;;;;5035262;28;20021;-94
2024/01/03 12:42:07;;;;;;;5.18;2.65;;;8.20;99.90;;;;;;5037516;28;20076;-93
2024/01/03 12:44:32;;;;;;;4.22;2.17;;;8.20;99.90;;;;;;5036829;28;20080;-93
2024/01/03 12:46:58;;;;;;;3.35;1.70;;;8.20;99.90;;;;;;5038277;28;20029;-92
2024/01/03 12:49:25;;;;;;;4.47;2.72;;;8.20;99.90;;;;;;5049526;28;20022;-92
2024/01/03 12:51:51;;;;;;;3.50;1.90;;;8.20;99.90;;;;;;5055991;28;20016;-93
2024/01/03 12:54:17;;;;;;;3.03;1.40;;;8.20;99.90;;;;;;5055727;28;20037;-91